General Aviation Weather

Text Reports

Enter one or more of the following location identifiers separated by a space:

Zip Code, Four-Character ICAO or Three-Character IATA airport codes.

METAR - Aviation Routine Weather Report
KMUO - Mountain Home, Idaho
Updated at 9:33 AM GMT on December 29, 2014 (2:33 AM MST):
SPECI KMUO 290933Z AUTO 00000KT 6SM -FZDZ BR SCT002 OVC060 M06/M07 A3009 RMK AO2 VIS 3/4 RWY30
TAF - Terminal Area Forecast
KMUO - Mountain Home, Idaho
Updated at 9:33 AM GMT on December 29, 2014 (2:33 AM MST):
No TAF is currently available for this location.
Decoded:
No decoded TAF is available.
PIREP - Pilot Weather Report
KMUO - Mountain Home, Idaho
Updated at 9:33 AM GMT on December 29, 2014 (2:33 AM MST):
No PIREP is currently available for this location.
AIRMET - Airmens Meteorological Information
KMUO - Mountain Home, Idaho
Updated at 9:33 AM GMT on December 29, 2014 (2:33 AM MST):
No AIRMET is currently available for this location.
SIGMET - Significant Meteorological Information
KMUO - Mountain Home, Idaho
Updated at 9:33 AM GMT on December 29, 2014 (2:33 AM MST):
No SIGMET is currently available for this location.
NOTAM - Notice to Airmen
KMUO - Mountain Home, Idaho
Updated at 9:33 AM GMT on December 29, 2014 (2:33 AM MST):
No NOTAM is currently available for this location.
Forecast Area
KMUO - Mountain Home, Idaho
Updated at 9:33 AM GMT on December 29, 2014 (2:33 AM MST):
No NOTAM is currently available for this location.
Aviation Weather Maps